Time;durP1;ratioP1;P1;durP2;ratioP2;P2;SDS_P1;SDS_P2;PMS_P1;PMS_P2;Temp;Humidity;BMP_temperature;BMP_pressure;BME280_temperature;BME280_humidity;BME280_pressure;Samples;Min_cycle;Max_cycle;Signal;HPM_P1;HPM_P2
2023/12/07 00:00:59;;;;;;;;;;;;;;;;;;5056491;28;19956;-54
2023/12/07 00:03:25;;;;;;;;;;;;;;;;;;5056629;28;19952;-54
2023/12/07 00:05:51;;;;;;;;;;;;;;;;;;5049678;28;19923;-54
2023/12/07 00:08:17;;;;;;;;;;;;;;;;;;5050775;28;20003;-54
2023/12/07 00:10:43;;;;;;;;;;;;;;;;;;5052881;28;20005;-54
2023/12/07 00:13:09;;;;;;;;;;;;;;;;;;5054236;28;20005;-54
2023/12/07 00:15:35;;;;;;;;;;;;;;;;;;5054765;28;20462;-54
2023/12/07 00:18:02;;;;;;;;;;;;;;;;;;5053139;28;20440;-54
2023/12/07 00:20:28;;;;;;;;;;;;;;;;;;5053758;28;20339;-54
2023/12/07 00:22:55;;;;;;;;;;;;;;;;;;5052793;28;20373;-54
2023/12/07 00:25:21;;;;;;;;;;;;;;;;;;5062258;28;20303;-54
2023/12/07 00:27:47;;;;;;;;;;;;;;;;;;5053650;28;19924;-54
2023/12/07 00:30:13;;;;;;;;;;;;;;;;;;5049233;28;20412;-54
2023/12/07 00:32:43;;;;;;;;;;;;;;;;;;5058150;28;19917;-54
2023/12/07 00:35:09;;;;;;;;;;;;;;;;;;5055272;28;19923;-54
2023/12/07 00:37:35;;;;;;;;;;;;;;;;;;5051407;28;19917;-54
2023/12/07 00:40:01;;;;;;;;;;;;;;;;;;5054472;28;20306;-54
2023/12/07 00:42:27;;;;;;;;;;;;;;;;;;5051833;28;19939;-54
2023/12/07 00:44:53;;;;;;;;;;;;;;;;;;5058896;28;19921;-54
2023/12/07 00:47:19;;;;;;;;;;;;;;;;;;5050325;28;19994;-54
2023/12/07 00:49:45;;;;;;;;;;;;;;;;;;5052605;28;19913;-54
2023/12/07 00:52:12;;;;;;;;;;;;;;;;;;5055658;28;20379;-51
2023/12/07 00:54:38;;;;;;;;;;;;;;;;;;5055544;28;19940;-51
2023/12/07 00:57:03;;;;;;;;;;;;;;;;;;5049378;28;20370;-51
2023/12/07 00:59:33;;;;;;;;;;;;;;;;;;5048729;28;20399;-51
2023/12/07 01:01:59;;;;;;;;;;;;;;;;;;5047620;28;20384;-54
2023/12/07 01:04:25;;;;;;;;;;;;;;;;;;5050358;28;19982;-51
2023/12/07 01:06:51;;;;;;;;;;;;;;;;;;5058575;28;20459;-52
2023/12/07 01:09:17;;;;;;;;;;;;;;;;;;5049471;28;19967;-52
2023/12/07 01:11:43;;;;;;;;;;;;;;;;;;5048806;28;19962;-53
2023/12/07 01:14:11;;;;;;;;;;;;;;;;;;5055695;28;20524;-51
2023/12/07 01:16:36;;;;;;;;;;;;;;;;;;5056236;28;19920;-52
2023/12/07 01:19:02;;;;;;;;;;;;;;;;;;5050305;28;19963;-51
2023/12/07 01:21:29;;;;;;;;;;;;;;;;;;5056849;28;20669;-51
2023/12/07 01:23:55;;;;;;;;;;;;;;;;;;5046463;28;20312;-51
2023/12/07 01:26:20;;;;;;;;;;;;;;;;;;5058588;28;19964;-51
2023/12/07 01:28:46;;;;;;;;;;;;;;;;;;5052670;28;19952;-51
2023/12/07 01:31:12;;;;;;;;;;;;;;;;;;5047853;28;19956;-52
2023/12/07 01:33:38;;;;;;;;;;;;;;;;;;5047045;28;19974;-52
2023/12/07 01:36:04;;;;;;;;;;;;;;;;;;5048103;28;20399;-51
2023/12/07 01:38:30;;;;;;;;;;;;;;;;;;5049652;28;19916;-52
2023/12/07 01:40:56;;;;;;;;;;;;;;;;;;5049918;28;19912;-52
2023/12/07 01:43:22;;;;;;;;;;;;;;;;;;5057384;28;19966;-52
2023/12/07 01:45:48;;;;;;;;;;;;;;;;;;5051039;28;19959;-52
2023/12/07 01:48:14;;;;;;;;;;;;;;;;;;5050666;28;19959;-52
2023/12/07 01:50:40;;;;;;;;;;;;;;;;;;5052474;28;20282;-54
2023/12/07 01:53:06;;;;;;;;;;;;;;;;;;5053947;28;20382;-54
2023/12/07 01:55:32;;;;;;;;;;;;;;;;;;5049683;28;20023;-55
2023/12/07 01:57:58;;;;;;;;;;;;;;;;;;5049591;28;20380;-55
2023/12/07 02:00:24;;;;;;;;;;;;;;;;;;5052086;28;20098;-54
2023/12/07 02:02:50;;;;;;;;;;;;;;;;;;5047933;28;19963;-54
2023/12/07 02:05:16;;;;;;;;;;;;;;;;;;5052024;28;19959;-54
2023/12/07 02:07:42;;;;;;;;;;;;;;;;;;5058090;28;19952;-54
2023/12/07 02:10:08;;;;;;;;;;;;;;;;;;5054615;28;19920;-54
2023/12/07 02:12:34;;;;;;;;;;;;;;;;;;5054160;28;19971;-54
2023/12/07 02:15:00;;;;;;;;;;;;;;;;;;5052575;28;19959;-54
2023/12/07 02:17:26;;;;;;;;;;;;;;;;;;5051236;28;20368;-54
2023/12/07 02:19:52;;;;;;;;;;;;;;;;;;5046673;28;20011;-53
2023/12/07 02:22:18;;;;;;;;;;;;;;;;;;5055461;28;19960;-54
2023/12/07 02:24:44;;;;;;;;;;;;;;;;;;5052057;28;19924;-54
2023/12/07 02:27:10;;;;;;;;;;;;;;;;;;5052610;28;19963;-54
2023/12/07 02:29:36;;;;;;;;;;;;;;;;;;5057960;28;20333;-55
2023/12/07 02:32:01;;;;;;;;;;;;;;;;;;5051073;28;20343;-55
2023/12/07 02:34:27;;;;;;;;;;;;;;;;;;5059516;28;20407;-55
2023/12/07 02:36:54;;;;;;;;;;;;;;;;;;5059105;28;19956;-55
2023/12/07 02:39:20;;;;;;;;;;;;;;;;;;5058722;28;19917;-55
2023/12/07 02:41:46;;;;;;;;;;;;;;;;;;5054418;28;19920;-54
2023/12/07 02:44:12;;;;;;;;;;;;;;;;;;5050393;28;20130;-55
2023/12/07 02:46:38;;;;;;;;;;;;;;;;;;5050480;28;20005;-55
2023/12/07 02:49:04;;;;;;;;;;;;;;;;;;5053614;28;19968;-54
2023/12/07 02:51:29;;;;;;;;;;;;;;;;;;5055229;28;19969;-55
2023/12/07 02:53:55;;;;;;;;;;;;;;;;;;5049238;28;19919;-55
2023/12/07 02:56:21;;;;;;;;;;;;;;;;;;5050650;28;19964;-55
2023/12/07 02:58:47;;;;;;;;;;;;;;;;;;5049998;28;19955;-55
2023/12/07 03:01:13;;;;;;;;;;;;;;;;;;5058150;28;20387;-54
2023/12/07 03:03:41;;;;;;;;;;;;;;;;;;5049826;28;19948;-55
2023/12/07 03:06:07;;;;;;;;;;;;;;;;;;5049540;28;19919;-55
2023/12/07 03:08:33;;;;;;;;;;;;;;;;;;5050601;28;20279;-55
2023/12/07 03:10:59;;;;;;;;;;;;;;;;;;5049427;28;20069;-51
2023/12/07 03:13:25;;;;;;;;;;;;;;;;;;5047549;28;19960;-51
2023/12/07 03:15:51;;;;;;;;;;;;;;;;;;5050908;28;19948;-52
2023/12/07 03:18:17;;;;;;;;;;;;;;;;;;5048141;28;19998;-50
2023/12/07 03:20:43;;;;;;;;;;;;;;;;;;5049814;28;19964;-51
2023/12/07 03:23:09;;;;;;;;;;;;;;;;;;5048967;28;19947;-50
2023/12/07 03:25:35;;;;;;;;;;;;;;;;;;5048355;28;19952;-51
2023/12/07 03:28:01;;;;;;;;;;;;;;;;;;5048410;28;20281;-51
2023/12/07 03:30:27;;;;;;;;;;;;;;;;;;5049692;28;19917;-51
2023/12/07 03:32:53;;;;;;;;;;;;;;;;;;5049973;28;20127;-51
2023/12/07 03:35:19;;;;;;;;;;;;;;;;;;5054318;28;20044;-53
2023/12/07 03:37:45;;;;;;;;;;;;;;;;;;5052531;28;21535;-51
2023/12/07 03:40:11;;;;;;;;;;;;;;;;;;5050338;28;19960;-51
2023/12/07 03:42:37;;;;;;;;;;;;;;;;;;5047931;28;20005;-51
2023/12/07 03:45:03;;;;;;;;;;;;;;;;;;5050547;28;20415;-51
2023/12/07 03:47:29;;;;;;;;;;;;;;;;;;5049901;28;20337;-52
2023/12/07 03:49:55;;;;;;;;;;;;;;;;;;5050202;28;19995;-51
2023/12/07 03:52:20;;;;;;;;;;;;;;;;;;5053528;28;19967;-52
2023/12/07 03:54:46;;;;;;;;;;;;;;;;;;5050259;28;19994;-52
2023/12/07 03:57:12;;;;;;;;;;;;;;;;;;5048579;28;19963;-52
2023/12/07 03:59:38;;;;;;;;;;;;;;;;;;5050585;28;19958;-50
2023/12/07 04:02:04;;;;;;;;;;;;;;;;;;5049580;28;19962;-52
2023/12/07 04:04:30;;;;;;;;;;;;;;;;;;5082106;28;19944;-54
2023/12/07 04:06:56;;;;;;;;;;;;;;;;;;5048042;28;19960;-54
2023/12/07 04:09:22;;;;;;;;;;;;;;;;;;5050282;28;20012;-55
2023/12/07 04:11:48;;;;;;;;;;;;;;;;;;5049170;28;20002;-54
2023/12/07 04:14:15;;;;;;;;;;;;;;;;;;5049657;28;19967;-55
2023/12/07 04:16:41;;;;;;;;;;;;;;;;;;5049308;28;19984;-54
2023/12/07 04:19:06;;;;;;;;;;;;;;;;;;5049344;28;20008;-55
2023/12/07 04:21:32;;;;;;;;;;;;;;;;;;5047640;28;19948;-55
2023/12/07 04:23:59;;;;;;;;;;;;;;;;;;5049870;28;20321;-56
2023/12/07 04:26:25;;;;;;;;;;;;;;;;;;5049563;28;19977;-55
2023/12/07 04:28:51;;;;;;;;;;;;;;;;;;5048787;28;19999;-55
2023/12/07 04:31:17;;;;;;;;;;;;;;;;;;5049596;28;20062;-55
2023/12/07 04:33:43;;;;;;;;;;;;;;;;;;5049274;28;19920;-55
2023/12/07 04:36:09;;;;;;;;;;;;;;;;;;5048974;28;19960;-55
2023/12/07 04:38:35;;;;;;;;;;;;;;;;;;5048743;28;19960;-54
2023/12/07 04:41:01;;;;;;;;;;;;;;;;;;5049387;28;19955;-54
2023/12/07 04:43:27;;;;;;;;;;;;;;;;;;5048772;28;20406;-55
2023/12/07 04:45:53;;;;;;;;;;;;;;;;;;5049417;28;20392;-56
2023/12/07 04:48:19;;;;;;;;;;;;;;;;;;5049613;28;20446;-55
2023/12/07 04:50:45;;;;;;;;;;;;;;;;;;5048481;28;20004;-54
2023/12/07 04:53:11;;;;;;;;;;;;;;;;;;5048488;28;19956;-55
2023/12/07 04:55:37;;;;;;;;;;;;;;;;;;5049610;28;19959;-57
2023/12/07 04:58:03;;;;;;;;;;;;;;;;;;5048384;28;19960;-55
2023/12/07 05:00:29;;;;;;;;;;;;;;;;;;5049513;28;20291;-56
2023/12/07 05:02:55;;;;;;;;;;;;;;;;;;5048506;28;19970;-56
2023/12/07 05:05:21;;;;;;;;;;;;;;;;;;5049111;28;19974;-55
2023/12/07 05:07:47;;;;;;;;;;;;;;;;;;5047766;28;20000;-54
2023/12/07 05:10:13;;;;;;;;;;;;;;;;;;5048572;28;19952;-55
2023/12/07 05:12:39;;;;;;;;;;;;;;;;;;5048684;28;19978;-55
2023/12/07 05:15:05;;;;;;;;;;;;;;;;;;5048524;28;20015;-55
2023/12/07 05:17:31;;;;;;;;;;;;;;;;;;5048663;28;20373;-55
2023/12/07 05:19:57;;;;;;;;;;;;;;;;;;5047878;28;19967;-56
2023/12/07 05:22:23;;;;;;;;;;;;;;;;;;5047620;28;19979;-55
2023/12/07 05:24:50;;;;;;;;;;;;;;;;;;5049117;28;19924;-55
2023/12/07 05:27:16;;;;;;;;;;;;;;;;;;5048404;28;20406;-56
2023/12/07 05:29:42;;;;;;;;;;;;;;;;;;5048359;28;19921;-55
2023/12/07 05:32:08;;;;;;;;;;;;;;;;;;5046653;28;20422;-56
2023/12/07 05:34:35;;;;;;;;;;;;;;;;;;5049225;28;20407;-54
2023/12/07 05:37:01;;;;;;;;;;;;;;;;;;5048200;28;19925;-54
2023/12/07 05:39:27;;;;;;;;;;;;;;;;;;5048301;28;19967;-54
2023/12/07 05:41:53;;;;;;;;;;;;;;;;;;5049687;28;19968;-54
2023/12/07 05:44:21;;;;;;;;;;;;;;;;;;5050587;28;19920;-54
2023/12/07 05:46:47;;;;;;;;;;;;;;;;;;5049380;28;20813;-54
2023/12/07 05:49:13;;;;;;;;;;;;;;;;;;5050405;28;19952;-53
2023/12/07 05:51:39;;;;;;;;;;;;;;;;;;5052188;28;19960;-53
2023/12/07 05:54:05;;;;;;;;;;;;;;;;;;5051748;28;19925;-53
2023/12/07 05:56:31;;;;;;;;;;;;;;;;;;5050345;28;19933;-53
2023/12/07 05:58:57;;;;;;;;;;;;;;;;;;5051322;28;19923;-53
2023/12/07 06:01:24;;;;;;;;;;;;;;;;;;5052325;28;19952;-54
2023/12/07 06:03:50;;;;;;;;;;;;;;;;;;5051443;28;19940;-53
2023/12/07 06:06:16;;;;;;;;;;;;;;;;;;5049641;28;19963;-54
2023/12/07 06:08:42;;;;;;;;;;;;;;;;;;5050330;28;19967;-53
2023/12/07 06:11:08;;;;;;;;;;;;;;;;;;5051011;28;19952;-53
2023/12/07 06:13:34;;;;;;;;;;;;;;;;;;5051058;28;20374;-53
2023/12/07 06:16:02;;;;;;;;;;;;;;;;;;5048891;28;19964;-53
2023/12/07 06:18:28;;;;;;;;;;;;;;;;;;5049675;28;20431;-53
2023/12/07 06:20:54;;;;;;;;;;;;;;;;;;5053093;28;20207;-53
2023/12/07 06:23:20;;;;;;;;;;;;;;;;;;5050425;28;19948;-54
2023/12/07 06:25:46;;;;;;;;;;;;;;;;;;5051272;28;19970;-55
2023/12/07 06:28:12;;;;;;;;;;;;;;;;;;5050516;28;19913;-54
2023/12/07 06:30:38;;;;;;;;;;;;;;;;;;5047795;28;19963;-54
2023/12/07 06:33:04;;;;;;;;;;;;;;;;;;5046012;28;19966;-54
2023/12/07 06:35:30;;;;;;;;;;;;;;;;;;5048650;28;19987;-54
2023/12/07 06:37:56;;;;;;;;;;;;;;;;;;5049869;28;19986;-54
2023/12/07 06:40:22;;;;;;;;;;;;;;;;;;5051013;28;20400;-54
2023/12/07 06:42:48;;;;;;;;;;;;;;;;;;5051844;28;20406;-54
2023/12/07 06:45:14;;;;;;;;;;;;;;;;;;5051579;28;19959;-54
2023/12/07 06:47:42;;;;;;;;;;;;;;;;;;5053052;28;20023;-53
2023/12/07 06:50:11;;;;;;;;;;;;;;;;;;5053113;28;19939;-54
2023/12/07 06:52:36;;;;;;;;;;;;;;;;;;5050626;28;19923;-54
2023/12/07 06:55:02;;;;;;;;;;;;;;;;;;5053638;28;19917;-50
2023/12/07 06:57:28;;;;;;;;;;;;;;;;;;5056345;28;19964;-51
2023/12/07 06:59:54;;;;;;;;;;;;;;;;;;5051545;28;19956;-50
2023/12/07 07:02:20;;;;;;;;;;;;;;;;;;5052363;28;19966;-49
2023/12/07 07:04:48;;;;;;;;;;;;;;;;;;5046777;28;20006;-50
2023/12/07 07:07:14;;;;;;;;;;;;;;;;;;5051540;28;19917;-50
2023/12/07 07:09:40;;;;;;;;;;;;;;;;;;5046741;28;19998;-50
2023/12/07 07:12:06;;;;;;;;;;;;;;;;;;5031780;28;19940;-50
2023/12/07 07:14:32;;;;;;;;;;;;;;;;;;5031726;28;19937;-54
2023/12/07 07:16:58;;;;;;;;;;;;;;;;;;5031600;28;19917;-55
2023/12/07 07:19:24;;;;;;;;;;;;;;;;;;5049615;28;19959;-54
2023/12/07 07:21:50;;;;;;;;;;;;;;;;;;5048184;28;19919;-55
2023/12/07 07:24:16;;;;;;;;;;;;;;;;;;5051826;28;19937;-54
2023/12/07 07:26:42;;;;;;;;;;;;;;;;;;5051005;28;19908;-54
2023/12/07 07:29:08;;;;;;;;;;;;;;;;;;5051354;28;20403;-54
2023/12/07 07:31:36;;;;;;;;;;;;;;;;;;5051382;28;20360;-54
2023/12/07 07:34:02;;;;;;;;;;;;;;;;;;5050816;28;19931;-54
2023/12/07 07:36:28;;;;;;;;;;;;;;;;;;5051024;28;19970;-54
2023/12/07 07:38:54;;;;;;;;;;;;;;;;;;5051109;28;20450;-54
2023/12/07 07:41:20;;;;;;;;;;;;;;;;;;5051360;28;19941;-55
2023/12/07 07:43:46;;;;;;;;;;;;;;;;;;5051187;28;19936;-54
2023/12/07 07:46:12;;;;;;;;;;;;;;;;;;5050859;28;20350;-49
2023/12/07 07:48:39;;;;;;;;;;;;;;;;;;5042325;28;19960;-50
2023/12/07 07:51:05;;;;;;;;;;;;;;;;;;5038511;28;19917;-49
2023/12/07 07:53:31;;;;;;;;;;;;;;;;;;5051637;28;19948;-50
2023/12/07 07:55:57;;;;;;;;;;;;;;;;;;5050780;28;19976;-49
2023/12/07 07:58:23;;;;;;;;;;;;;;;;;;5050899;28;20378;-54
2023/12/07 08:00:49;;;;;;;;;;;;;;;;;;5051134;28;20418;-53
2023/12/07 08:03:15;;;;;;;;;;;;;;;;;;5049828;28;19931;-54
2023/12/07 08:05:41;;;;;;;;;;;;;;;;;;5050326;28;19917;-49
2023/12/07 08:08:07;;;;;;;;;;;;;;;;;;5051282;28;19960;-49
2023/12/07 08:10:33;;;;;;;;;;;;;;;;;;5050975;28;20461;-51
2023/12/07 08:12:59;;;;;;;;;;;;;;;;;;5050485;28;19909;-49
2023/12/07 08:15:25;;;;;;;;;;;;;;;;;;5050115;28;19956;-49
2023/12/07 08:17:51;;;;;;;;;;;;;;;;;;5049963;28;20010;-49
2023/12/07 08:20:17;;;;;;;;;;;;;;;;;;5050781;28;19956;-53
2023/12/07 08:22:43;;;;;;;;;;;;;;;;;;5050106;28;20047;-59
2023/12/07 08:25:09;;;;;;;;;;;;;;;;;;5050440;28;20031;-54
2023/12/07 08:27:35;;;;;;;;;;;;;;;;;;5048401;28;19916;-54
2023/12/07 08:30:01;;;;;;;;;;;;;;;;;;5050535;28;20071;-54
2023/12/07 08:32:27;;;;;;;;;;;;;;;;;;5049606;28;19948;-54
2023/12/07 08:34:53;;;;;;;;;;;;;;;;;;5050252;28;19955;-54
2023/12/07 08:37:19;;;;;;;;;;;;;;;;;;5049683;28;19959;-54
2023/12/07 08:39:45;;;;;;;;;;;;;;;;;;5072763;28;19943;-53
2023/12/07 08:42:11;;;;;;;;;;;;;;;;;;5040439;28;19952;-54
2023/12/07 08:44:37;;;;;;;;;;;;;;;;;;5050443;28;19962;-54
2023/12/07 08:47:03;;;;;;;;;;;;;;;;;;5048912;28;19917;-54
2023/12/07 08:49:29;;;;;;;;;;;;;;;;;;5049908;28;19963;-55
2023/12/07 08:51:55;;;;;;;;;;;;;;;;;;5058054;28;19978;-55
2023/12/07 08:54:21;;;;;;;;;;;;;;;;;;5050592;28;19919;-54
2023/12/07 08:56:47;;;;;;;;;;;;;;;;;;5048592;28;19917;-54
2023/12/07 08:59:13;;;;;;;;;;;;;;;;;;5049356;28;19960;-54
2023/12/07 09:01:39;;;;;;;;;;;;;;;;;;5050166;28;19962;-54
2023/12/07 09:04:05;;;;;;;;;;;;;;;;;;5048980;28;20471;-54
2023/12/07 09:06:31;;;;;;;;;;;;;;;;;;5049437;28;19919;-54
2023/12/07 09:08:57;;;;;;;;;;;;;;;;;;5049662;28;19948;-54
2023/12/07 09:11:23;;;;;;;;;;;;;;;;;;5049655;28;20256;-54
2023/12/07 09:13:49;;;;;;;;;;;;;;;;;;5050390;28;19913;-55
2023/12/07 09:16:15;;;;;;;;;;;;;;;;;;5052021;28;19935;-55
2023/12/07 09:18:41;;;;;;;;;;;;;;;;;;5053641;28;20384;-55
2023/12/07 09:21:07;;;;;;;;;;;;;;;;;;5053536;28;19963;-55
2023/12/07 09:23:33;;;;;;;;;;;;;;;;;;5053218;28;20403;-55
2023/12/07 09:25:59;;;;;;;;;;;;;;;;;;5054206;28;19920;-56
2023/12/07 09:28:25;;;;;;;;;;;;;;;;;;5053491;28;20325;-55
2023/12/07 09:30:54;;;;;;;;;;;;;;;;;;5053672;28;19923;-55
2023/12/07 09:33:20;;;;;;;;;;;;;;;;;;5052925;28;20384;-55
2023/12/07 09:35:46;;;;;;;;;;;;;;;;;;5053179;28;19959;-55
2023/12/07 09:38:12;;;;;;;;;;;;;;;;;;5053619;28;19968;-55
2023/12/07 09:40:38;;;;;;;;;;;;;;;;;;5036767;28;19964;-56
2023/12/07 09:43:04;;;;;;;;;;;;;;;;;;5033246;28;20427;-56
2023/12/07 09:45:30;;;;;;;;;;;;;;;;;;5051602;28;19959;-55
2023/12/07 09:47:56;;;;;;;;;;;;;;;;;;5051708;28;19913;-56
2023/12/07 09:50:22;;;;;;;;;;;;;;;;;;5053825;28;19963;-56
2023/12/07 09:52:48;;;;;;;;;;;;;;;;;;5052975;28;19944;-58
2023/12/07 09:55:14;;;;;;;;;;;;;;;;;;5053086;28;19917;-55
2023/12/07 09:57:40;;;;;;;;;;;;;;;;;;5052859;28;19971;-55
2023/12/07 10:00:09;;;;;;;;;;;;;;;;;;5053527;28;19920;-55
2023/12/07 10:02:35;;;;;;;;;;;;;;;;;;5052601;28;20265;-56
2023/12/07 10:05:01;;;;;;;;;;;;;;;;;;5053093;28;19923;-56
2023/12/07 10:07:27;;;;;;;;;;;;;;;;;;5051173;28;19909;-55
2023/12/07 10:09:54;;;;;;;;;;;;;;;;;;5052202;28;19959;-54
2023/12/07 10:12:21;;;;;;;;;;;;;;;;;;5052699;28;20353;-54
2023/12/07 10:14:47;;;;;;;;;;;;;;;;;;5053083;28;19913;-55
2023/12/07 10:17:13;;;;;;;;;;;;;;;;;;5051969;28;19960;-54
2023/12/07 10:19:39;;;;;;;;;;;;;;;;;;5052744;28;19941;-56
2023/12/07 10:22:05;;;;;;;;;;;;;;;;;;5051165;28;19968;-55
2023/12/07 10:24:31;;;;;;;;;;;;;;;;;;5052969;28;19970;-51
2023/12/07 10:26:57;;;;;;;;;;;;;;;;;;5051832;28;19963;-52
2023/12/07 10:29:23;;;;;;;;;;;;;;;;;;5051774;28;20344;-50
2023/12/07 10:31:49;;;;;;;;;;;;;;;;;;5051142;28;20352;-51
2023/12/07 10:34:15;;;;;;;;;;;;;;;;;;5052889;28;20369;-54
2023/12/07 10:36:41;;;;;;;;;;;;;;;;;;5051803;28;19998;-54
2023/12/07 10:39:07;;;;;;;;;;;;;;;;;;5052220;28;20651;-54
2023/12/07 10:41:33;;;;;;;;;;;;;;;;;;5032148;28;19909;-54
2023/12/07 10:43:59;;;;;;;;;;;;;;;;;;5040204;28;19954;-54
2023/12/07 10:46:26;;;;;;;;;;;;;;;;;;5052344;28;20205;-54
2023/12/07 10:48:52;;;;;;;;;;;;;;;;;;5051896;28;19974;-54
2023/12/07 10:51:19;;;;;;;;;;;;;;;;;;5052053;28;20368;-54
2023/12/07 10:53:45;;;;;;;;;;;;;;;;;;5052221;28;20016;-54
2023/12/07 10:56:11;;;;;;;;;;;;;;;;;;5051682;28;20012;-54
2023/12/07 10:58:37;;;;;;;;;;;;;;;;;;5052111;28;20379;-54
2023/12/07 11:01:03;;;;;;;;;;;;;;;;;;5051404;28;20063;-54
2023/12/07 11:03:29;;;;;;;;;;;;;;;;;;5083737;28;19948;-54
2023/12/07 11:05:55;;;;;;;;;;;;;;;;;;5051436;28;19956;-54
2023/12/07 11:08:21;;;;;;;;;;;;;;;;;;5052273;28;19938;-54
2023/12/07 11:10:48;;;;;;;;;;;;;;;;;;5051374;28;19913;-54
2023/12/07 11:13:14;;;;;;;;;;;;;;;;;;5050724;28;19924;-54
2023/12/07 11:15:40;;;;;;;;;;;;;;;;;;5052002;28;19956;-54
2023/12/07 11:18:07;;;;;;;;;;;;;;;;;;5050881;28;19928;-54
2023/12/07 11:20:33;;;;;;;;;;;;;;;;;;5051286;28;19912;-54
2023/12/07 11:22:59;;;;;;;;;;;;;;;;;;5051778;28;19946;-54
2023/12/07 11:25:25;;;;;;;;;;;;;;;;;;5051524;28;19957;-54
2023/12/07 11:27:51;;;;;;;;;;;;;;;;;;5050672;28;19952;-55
2023/12/07 11:30:17;;;;;;;;;;;;;;;;;;5051494;28;19916;-58
2023/12/07 11:32:43;;;;;;;;;;;;;;;;;;5050427;28;20398;-54
2023/12/07 11:35:09;;;;;;;;;;;;;;;;;;5051346;28;20027;-54
2023/12/07 11:37:35;;;;;;;;;;;;;;;;;;5050902;28;20004;-54
2023/12/07 11:40:01;;;;;;;;;;;;;;;;;;5051122;28;20401;-54
2023/12/07 11:42:27;;;;;;;;;;;;;;;;;;5050482;28;19967;-54
2023/12/07 11:44:53;;;;;;;;;;;;;;;;;;5050720;28;19944;-54
2023/12/07 11:47:20;;;;;;;;;;;;;;;;;;5050792;28;19920;-54
2023/12/07 11:49:46;;;;;;;;;;;;;;;;;;5051379;28;19962;-54
2023/12/07 11:52:12;;;;;;;;;;;;;;;;;;5050080;28;19975;-55
2023/12/07 11:54:40;;;;;;;;;;;;;;;;;;5051426;28;19971;-55
2023/12/07 11:57:09;;;;;;;;;;;;;;;;;;5050416;28;20383;-55
2023/12/07 11:59:35;;;;;;;;;;;;;;;;;;5051143;28;19917;-55
2023/12/07 12:02:04;;;;;;;;;;;;;;;;;;5049715;28;19940;-56
2023/12/07 12:04:30;;;;;;;;;;;;;;;;;;5050628;28;20368;-54
2023/12/07 12:06:56;;;;;;;;;;;;;;;;;;5050234;28;20264;-54
2023/12/07 12:09:22;;;;;;;;;;;;;;;;;;5050763;28;19947;-55
2023/12/07 12:11:48;;;;;;;;;;;;;;;;;;5049636;28;19956;-54
2023/12/07 12:14:14;;;;;;;;;;;;;;;;;;5050602;28;19967;-55
2023/12/07 12:16:40;;;;;;;;;;;;;;;;;;5050710;28;20406;-55
2023/12/07 12:19:06;;;;;;;;;;;;;;;;;;5049988;28;19966;-55
2023/12/07 12:21:32;;;;;;;;;;;;;;;;;;5048291;28;20393;-54
2023/12/07 12:23:58;;;;;;;;;;;;;;;;;;5050805;28;20326;-55
2023/12/07 12:26:24;;;;;;;;;;;;;;;;;;5048763;28;19966;-54
2023/12/07 12:28:50;;;;;;;;;;;;;;;;;;5050435;28;20359;-54
2023/12/07 12:31:16;;;;;;;;;;;;;;;;;;5049654;28;19913;-53
2023/12/07 12:33:42;;;;;;;;;;;;;;;;;;5049773;28;20016;-55
2023/12/07 12:36:10;;;;;;;;;;;;;;;;;;5048752;28;20007;-55
2023/12/07 12:38:36;;;;;;;;;;;;;;;;;;5049872;28;20368;-54
2023/12/07 12:41:03;;;;;;;;;;;;;;;;;;5050059;28;19955;-53
2023/12/07 12:43:29;;;;;;;;;;;;;;;;;;5050321;28;19913;-54
2023/12/07 12:45:55;;;;;;;;;;;;;;;;;;5049477;28;20355;-54
2023/12/07 12:48:21;;;;;;;;;;;;;;;;;;5049292;28;20068;-54
2023/12/07 12:50:48;;;;;;;;;;;;;;;;;;5048789;28;19956;-54
2023/12/07 12:53:14;;;;;;;;;;;;;;;;;;5048310;28;19917;-54
2023/12/07 12:55:40;;;;;;;;;;;;;;;;;;5050436;28;20003;-55
2023/12/07 12:58:07;;;;;;;;;;;;;;;;;;5049243;28;19963;-54
2023/12/07 13:00:33;;;;;;;;;;;;;;;;;;5049875;28;19959;-55
2023/12/07 13:02:59;;;;;;;;;;;;;;;;;;5049327;28;19959;-54
2023/12/07 13:05:25;;;;;;;;;;;;;;;;;;5050143;28;20007;-55
2023/12/07 13:07:51;;;;;;;;;;;;;;;;;;5048836;28;20039;-55
2023/12/07 13:10:17;;;;;;;;;;;;;;;;;;5049883;28;20056;-55
2023/12/07 13:12:45;;;;;;;;;;;;;;;;;;5049393;28;19955;-55
2023/12/07 13:15:12;;;;;;;;;;;;;;;;;;5033344;28;20432;-55
2023/12/07 13:17:38;;;;;;;;;;;;;;;;;;5049522;28;19966;-55
2023/12/07 13:20:04;;;;;;;;;;;;;;;;;;5049842;28;19923;-55
2023/12/07 13:22:30;;;;;;;;;;;;;;;;;;5048559;28;19916;-55
2023/12/07 13:24:56;;;;;;;;;;;;;;;;;;5049417;28;19978;-55
2023/12/07 13:27:22;;;;;;;;;;;;;;;;;;5049261;28;19963;-55
2023/12/07 13:29:49;;;;;;;;;;;;;;;;;;5049730;28;20027;-55
2023/12/07 13:32:15;;;;;;;;;;;;;;;;;;5048797;28;19920;-55
2023/12/07 13:34:41;;;;;;;;;;;;;;;;;;5049209;28;20078;-55
2023/12/07 13:37:07;;;;;;;;;;;;;;;;;;5048916;28;20007;-55
2023/12/07 13:39:33;;;;;;;;;;;;;;;;;;5041771;28;19949;-56
2023/12/07 13:42:00;;;;;;;;;;;;;;;;;;5029377;28;19937;-55
2023/12/07 13:44:26;;;;;;;;;;;;;;;;;;5044126;28;19917;-54
2023/12/07 13:46:53;;;;;;;;;;;;;;;;;;5048711;28;20438;-55
2023/12/07 13:49:19;;;;;;;;;;;;;;;;;;5068448;28;19970;-56
2023/12/07 13:51:46;;;;;;;;;;;;;;;;;;5052625;28;20299;-54
2023/12/07 13:54:12;;;;;;;;;;;;;;;;;;5049488;28;19921;-55
2023/12/07 13:56:38;;;;;;;;;;;;;;;;;;5047694;28;19958;-55
2023/12/07 13:59:06;;;;;;;;;;;;;;;;;;5049569;28;19962;-55
2023/12/07 14:01:32;;;;;;;;;;;;;;;;;;5050057;28;19921;-54
2023/12/07 14:03:58;;;;;;;;;;;;;;;;;;5052003;28;19912;-55
2023/12/07 14:06:24;;;;;;;;;;;;;;;;;;5052892;28;19923;-55
2023/12/07 14:08:50;;;;;;;;;;;;;;;;;;5053327;28;19959;-54
2023/12/07 14:11:16;;;;;;;;;;;;;;;;;;5052578;28;19956;-54
2023/12/07 14:13:42;;;;;;;;;;;;;;;;;;5051859;28;20372;-55
2023/12/07 14:16:08;;;;;;;;;;;;;;;;;;5048058;28;19913;-55
2023/12/07 14:18:34;;;;;;;;;;;;;;;;;;5050952;28;19966;-55
2023/12/07 14:21:00;;;;;;;;;;;;;;;;;;5050584;28;20090;-55
2023/12/07 14:23:26;;;;;;;;;;;;;;;;;;5055258;28;19952;-54
2023/12/07 14:25:58;;;;;;;;;;;;;;;;;;5056950;28;19960;-54
2023/12/07 14:28:24;;;;;;;;;;;;;;;;;;5050369;28;20425;-54
2023/12/07 14:30:55;;;;;;;;;;;;;;;;;;5049547;28;20011;-55
2023/12/07 14:33:21;;;;;;;;;;;;;;;;;;5047306;28;19929;-55
2023/12/07 14:35:48;;;;;;;;;;;;;;;;;;5049417;28;19955;-55
2023/12/07 14:38:14;;;;;;;;;;;;;;;;;;5049628;28;19946;-54
2023/12/07 14:40:40;;;;;;;;;;;;;;;;;;5045716;28;19956;-55
2023/12/07 14:43:06;;;;;;;;;;;;;;;;;;5050306;28;19948;-54
2023/12/07 14:45:32;;;;;;;;;;;;;;;;;;5045229;28;20010;-54
2023/12/07 14:47:58;;;;;;;;;;;;;;;;;;5047480;28;20002;-54
2023/12/07 14:50:24;;;;;;;;;;;;;;;;;;5049914;28;19952;-54
2023/12/07 14:52:50;;;;;;;;;;;;;;;;;;5050344;28;19917;-56
2023/12/07 14:55:18;;;;;;;;;;;;;;;;;;5048063;28;19997;-55
2023/12/07 14:57:44;;;;;;;;;;;;;;;;;;5051393;28;20261;-56
2023/12/07 15:00:10;;;;;;;;;;;;;;;;;;5048696;28;19967;-56
2023/12/07 15:02:36;;;;;;;;;;;;;;;;;;5046906;28;20391;-55
2023/12/07 15:05:02;;;;;;;;;;;;;;;;;;5052938;28;19987;-54
2023/12/07 15:07:28;;;;;;;;;;;;;;;;;;5052187;28;20325;-55
2023/12/07 15:09:54;;;;;;;;;;;;;;;;;;5057719;28;20380;-54
2023/12/07 15:12:20;;;;;;;;;;;;;;;;;;5049563;28;20447;-56
2023/12/07 15:14:46;;;;;;;;;;;;;;;;;;5050692;28;19915;-55
2023/12/07 15:17:12;;;;;;;;;;;;;;;;;;5049600;28;19924;-53
2023/12/07 15:19:38;;;;;;;;;;;;;;;;;;5051623;28;20383;-52
2023/12/07 15:22:04;;;;;;;;;;;;;;;;;;5046964;28;19925;-52
2023/12/07 15:24:30;;;;;;;;;;;;;;;;;;5044623;28;20682;-52
2023/12/07 15:26:56;;;;;;;;;;;;;;;;;;5047471;28;20372;-52
2023/12/07 15:29:22;;;;;;;;;;;;;;;;;;5048574;28;19963;-52
2023/12/07 15:31:49;;;;;;;;;;;;;;;;;;5044892;28;20315;-53
2023/12/07 15:34:15;;;;;;;;;;;;;;;;;;5045720;28;20304;-53
2023/12/07 15:36:41;;;;;;;;;;;;;;;;;;5047559;28;19956;-55
2023/12/07 15:39:07;;;;;;;;;;;;;;;;;;5047705;28;20376;-54
2023/12/07 15:41:33;;;;;;;;;;;;;;;;;;5047308;28;19995;-52
2023/12/07 15:43:59;;;;;;;;;;;;;;;;;;5049777;28;19913;-54
2023/12/07 15:46:25;;;;;;;;;;;;;;;;;;5048624;28;19990;-53
2023/12/07 15:48:51;;;;;;;;;;;;;;;;;;5046298;28;19960;-54
2023/12/07 15:51:17;;;;;;;;;;;;;;;;;;5047174;28;19964;-54
2023/12/07 15:53:43;;;;;;;;;;;;;;;;;;5048263;28;20343;-54
2023/12/07 15:56:09;;;;;;;;;;;;;;;;;;5047378;28;19960;-54
2023/12/07 15:58:35;;;;;;;;;;;;;;;;;;5049805;28;20021;-54
2023/12/07 16:01:01;;;;;;;;;;;;;;;;;;5047876;28;20004;-53
2023/12/07 16:03:28;;;;;;;;;;;;;;;;;;5046328;28;20392;-54
2023/12/07 16:05:54;;;;;;;;;;;;;;;;;;5047218;28;19920;-55
2023/12/07 16:08:20;;;;;;;;;;;;;;;;;;5047490;28;19969;-55
2023/12/07 16:10:46;;;;;;;;;;;;;;;;;;5045147;28;19923;-54
2023/12/07 16:13:12;;;;;;;;;;;;;;;;;;5047268;28;19960;-55
2023/12/07 16:15:38;;;;;;;;;;;;;;;;;;5044927;28;19947;-54
2023/12/07 16:18:04;;;;;;;;;;;;;;;;;;5048049;28;19916;-55
2023/12/07 16:20:30;;;;;;;;;;;;;;;;;;5046001;28;19921;-55
2023/12/07 16:22:56;;;;;;;;;;;;;;;;;;5045335;28;19916;-54
2023/12/07 16:25:22;;;;;;;;;;;;;;;;;;5046005;28;19959;-54
2023/12/07 16:27:48;;;;;;;;;;;;;;;;;;5044849;28;19952;-56
2023/12/07 16:30:14;;;;;;;;;;;;;;;;;;5047602;28;20529;-57
2023/12/07 16:32:40;;;;;;;;;;;;;;;;;;5043812;28;20008;-56
2023/12/07 16:35:06;;;;;;;;;;;;;;;;;;5047970;28;20050;-56
2023/12/07 16:37:33;;;;;;;;;;;;;;;;;;5047311;28;20078;-55